Messwerte Chios

Temperatur

Temperatur
°C
1594368000 11.00 11.00 25
1594371600 12.00 12.00 26
1594375200 13.00 13.00 28
1594378800 14.00 14.00 28
1594382400 15.00 15.00 30
1594386000 16.00 16.00 30
1594389600 17.00 17.00 31
1594393200 18.00 18.00 31
1594396800 19.00 19.00 31
1594400400 20.00 20.00 31
1594404000 21.00 21.00 29
1594407600 22.00 22.00 28
1594411200 23.00 23.00 27
1594414800 0.00 0.00 26
1594418400 1.00 1.00
1594422000 2.00 2.00
1594425600 3.00 3.00 26
1594429200 4.00 4.00
1594432800 5.00 5.00 25
1594436400 6.00 6.00 24
1594440000 7.00 7.00 24
1594443600 8.00 8.00 24
1594447200 9.00 9.00 24
1594450800 10.00 10.00 25

Aktuellste Messwerte

Wettercharakter
Wetter: recht sonnig
Temperatur
25 °C
Feuchtigkeit
70 %
Wind
20 km/hWindrichtung: Nord
Luftdruck
1010 hPa
Messzeit: 11. Juli 2020, 11.00Datenquelle: METAR

Weitere Messstationen in der Nähe

Messstation Temperatur Entfernung
Izmir 29 °C 80 km
İzmir 30 °C 89 km
Mytilini 26 °C 92 km
Samos 28 °C 98 km
Mykonos 25 °C 121 km
Syros 25 °C 146 km
Naxos 25 °C 152 km

Wind

Windrichtung Böen Mittelwind
° km/h km/h
1594368000 11.00 10.00 - 11.00 10° 30
1594371600 12.00 11.00 - 12.00 20° 25
1594375200 13.00 12.00 - 13.00 10° 20
1594378800 14.00 13.00 - 14.00 10° 25
1594382400 15.00 14.00 - 15.00 10° 25
1594386000 16.00 15.00 - 16.00 10° 25
1594389600 17.00 16.00 - 17.00 10° 20
1594393200 18.00 17.00 - 18.00 360° 20
1594396800 19.00 18.00 - 19.00 10° 20
1594400400 20.00 19.00 - 20.00 10° 20
1594404000 21.00 20.00 - 21.00 10° 15
1594407600 22.00 21.00 - 22.00 10° 20
1594411200 23.00 22.00 - 23.00 360° 20
1594414800 0.00 23.00 - 0.00 360° 25
1594418400 1.00 0.00 - 1.00
1594422000 2.00 1.00 - 2.00
1594425600 3.00 2.00 - 3.00 360° 45 20
1594429200 4.00 3.00 - 4.00
1594432800 5.00 4.00 - 5.00 360° 20
1594436400 6.00 5.00 - 6.00 10° 20
1594440000 7.00 6.00 - 7.00 10° 20
1594443600 8.00 7.00 - 8.00 10° 20
1594447200 9.00 8.00 - 9.00 20° 20
1594450800 10.00 9.00 - 10.00 20° 20

Ihre Wetterstation

Fehlt Ihre Wetterstation auf unserem Portal?

Schreiben Sie an network@meteonews.ch

Klima

Wann ist es am wärmsten? Wann regnet es am wenigsten? Unsere Klimadaten geben Auskunft.